createdAt,value
2023-04-28T00:00:36.577Z,4.67
2023-04-28T00:03:03.768Z,4.50
2023-04-28T00:05:31.031Z,4.57
2023-04-28T00:07:58.292Z,4.70
2023-04-28T00:10:25.352Z,5.27
2023-04-28T00:12:52.258Z,4.67
2023-04-28T00:15:19.191Z,5.00
2023-04-28T00:17:46.247Z,5.73
2023-04-28T00:20:13.425Z,4.70
2023-04-28T00:22:40.509Z,4.80
2023-04-28T00:25:08.564Z,4.40
2023-04-28T00:27:35.885Z,5.57
2023-04-28T00:30:03.042Z,4.73
2023-04-28T00:32:30.029Z,4.87
2023-04-28T00:34:57.725Z,5.03
2023-04-28T00:37:24.709Z,5.20
2023-04-28T00:39:58.143Z,4.43
2023-04-28T00:42:25.159Z,5.00
2023-04-28T00:44:52.152Z,4.60
2023-04-28T00:47:19.541Z,4.80
2023-04-28T00:49:49.476Z,4.70
2023-04-28T00:52:16.466Z,4.57
2023-04-28T00:54:43.565Z,6.80
2023-04-28T00:57:10.824Z,4.70
2023-04-28T00:59:38.097Z,4.40
2023-04-28T01:02:06.506Z,4.60
2023-04-28T01:04:33.931Z,4.63
2023-04-28T01:07:02.527Z,4.90
2023-04-28T01:09:30.951Z,5.00
2023-04-28T01:11:58.373Z,4.40
2023-04-28T01:14:25.582Z,4.30
2023-04-28T01:16:53.548Z,5.03
2023-04-28T01:19:22.394Z,4.90
2023-04-28T01:21:52.207Z,4.73
2023-04-28T01:24:19.479Z,5.07
2023-04-28T01:26:46.588Z,5.03
2023-04-28T01:29:14.499Z,4.73
2023-04-28T01:31:41.550Z,5.20
2023-04-28T01:34:08.652Z,5.37
2023-04-28T01:36:37.414Z,5.00
2023-04-28T01:39:05.955Z,5.53
2023-04-28T01:41:35.949Z,6.43
2023-04-28T01:44:03.909Z,5.90
2023-04-28T01:46:30.889Z,5.23
2023-04-28T01:48:57.960Z,5.63
2023-04-28T01:51:25.179Z,7.30
2023-04-28T01:53:52.100Z,5.50
2023-04-28T01:56:19.013Z,5.47
2023-04-28T01:58:46.090Z,6.03
2023-04-28T02:01:13.203Z,5.20
2023-04-28T02:03:40.455Z,7.17
2023-04-28T02:06:07.488Z,6.07
2023-04-28T02:08:34.404Z,5.10
2023-04-28T02:11:03.487Z,6.13
2023-04-28T02:13:30.455Z,7.67
2023-04-28T02:16:01.866Z,5.73
2023-04-28T02:18:28.972Z,5.67
2023-04-28T02:20:55.947Z,5.50
2023-04-28T02:23:22.862Z,5.73
2023-04-28T02:25:49.760Z,7.60
2023-04-28T02:28:16.714Z,5.37
2023-04-28T02:30:43.660Z,6.80
2023-04-28T02:33:10.565Z,6.03
2023-04-28T02:35:37.535Z,5.53
2023-04-28T02:38:04.425Z,5.70
2023-04-28T02:40:31.404Z,5.70
2023-04-28T02:42:58.570Z,6.03
2023-04-28T02:45:25.543Z,5.60
2023-04-28T02:47:52.798Z,5.63
2023-04-28T02:50:19.882Z,5.37
2023-04-28T02:52:48.953Z,5.37
2023-04-28T02:55:23.697Z,12.53
2023-04-28T02:57:50.819Z,5.50
2023-04-28T03:00:17.863Z,5.40
2023-04-28T03:02:44.829Z,5.20
2023-04-28T03:05:11.893Z,5.73
2023-04-28T03:07:38.829Z,5.53
2023-04-28T03:10:06.281Z,5.60
2023-04-28T03:12:33.493Z,5.67
2023-04-28T03:15:01.313Z,6.63
2023-04-28T03:17:28.369Z,5.53
2023-04-28T03:19:55.622Z,5.20
2023-04-28T03:22:22.521Z,4.90
2023-04-28T03:24:49.451Z,5.60
2023-04-28T03:27:16.388Z,5.97
2023-04-28T03:29:43.384Z,5.70
2023-04-28T03:32:10.920Z,5.57
2023-04-28T03:34:37.979Z,5.53
2023-04-28T03:37:05.360Z,5.47
2023-04-28T03:39:32.240Z,5.67
2023-04-28T03:41:59.152Z,5.57
2023-04-28T03:44:26.665Z,6.17
2023-04-28T03:46:53.583Z,5.80
2023-04-28T03:49:20.505Z,6.13
2023-04-28T03:51:47.911Z,5.67
2023-04-28T03:54:15.034Z,5.30
2023-04-28T03:56:42.380Z,5.53
2023-04-28T03:59:11.671Z,5.43
2023-04-28T04:01:38.583Z,7.87
2023-04-28T04:04:05.553Z,6.23
2023-04-28T04:06:32.896Z,6.77
2023-04-28T04:09:00.422Z,6.50
2023-04-28T04:11:27.383Z,6.10
2023-04-28T04:13:54.347Z,8.57
2023-04-28T04:16:22.601Z,9.43
2023-04-28T04:18:49.678Z,6.63
2023-04-28T04:21:16.586Z,6.37
2023-04-28T04:23:43.486Z,6.83
2023-04-28T04:26:10.605Z,6.47
2023-04-28T04:28:37.557Z,6.43
2023-04-28T04:31:04.527Z,6.37
2023-04-28T04:33:31.574Z,6.30
2023-04-28T04:35:58.650Z,6.03
2023-04-28T04:38:25.597Z,6.60
2023-04-28T04:40:52.496Z,6.53
2023-04-28T04:43:19.422Z,6.73
2023-04-28T04:45:46.348Z,5.87
2023-04-28T04:48:13.616Z,5.87
2023-04-28T04:50:42.279Z,6.00
2023-04-28T04:53:12.688Z,6.30
2023-04-28T04:55:41.733Z,6.43
2023-04-28T04:58:08.693Z,6.53
2023-04-28T05:00:37.279Z,6.37
2023-04-28T05:03:06.468Z,6.30
2023-04-28T05:05:34.564Z,6.83
2023-04-28T05:08:02.324Z,6.70
2023-04-28T05:10:29.579Z,6.53
2023-04-28T05:12:56.493Z,6.80
2023-04-28T05:15:23.425Z,6.37
2023-04-28T05:17:50.371Z,6.40
2023-04-28T05:20:17.325Z,6.73
2023-04-28T05:22:44.202Z,6.60
2023-04-28T05:25:11.166Z,6.30
2023-04-28T05:27:39.544Z,6.70
2023-04-28T05:30:10.430Z,7.23
2023-04-28T05:32:38.167Z,6.90
2023-04-28T05:35:05.498Z,7.60
2023-04-28T05:37:32.422Z,7.10
2023-04-28T05:39:59.338Z,6.87
2023-04-28T05:42:26.499Z,7.00
2023-04-28T05:44:53.439Z,7.07
2023-04-28T05:47:20.583Z,7.03
2023-04-28T05:49:47.472Z,7.20
2023-04-28T05:52:14.413Z,7.37
2023-04-28T05:54:41.322Z,6.97
2023-04-28T05:57:08.288Z,8.10
2023-04-28T05:59:35.409Z,6.80
2023-04-28T06:02:02.394Z,7.30
2023-04-28T06:04:29.583Z,7.10
2023-04-28T06:06:57.013Z,7.20
2023-04-28T06:09:23.960Z,7.57
2023-04-28T06:11:51.011Z,6.97
2023-04-28T06:14:18.186Z,7.90
2023-04-28T06:16:45.432Z,7.40
2023-04-28T06:19:14.496Z,7.50
2023-04-28T06:21:41.409Z,7.00
2023-04-28T06:24:08.312Z,7.20
2023-04-28T06:26:35.230Z,7.67
2023-04-28T06:29:02.133Z,7.27
2023-04-28T06:31:29.198Z,8.17
2023-04-28T06:33:56.261Z,7.57
2023-04-28T06:36:23.227Z,8.20
2023-04-28T06:38:51.322Z,8.23
2023-04-28T06:41:18.281Z,7.97
2023-04-28T06:43:45.358Z,7.87
2023-04-28T06:46:12.340Z,9.67
2023-04-28T06:48:39.346Z,8.43
2023-04-28T06:51:06.459Z,9.40
2023-04-28T06:53:33.930Z,8.40
2023-04-28T06:56:02.289Z,8.40
2023-04-28T06:58:29.191Z,8.73
2023-04-28T07:00:56.243Z,8.20
2023-04-28T07:03:23.411Z,8.53
2023-04-28T07:05:51.151Z,10.27
2023-04-28T07:08:18.102Z,8.70
2023-04-28T07:10:45.137Z,8.77
2023-04-28T07:13:12.084Z,8.80
2023-04-28T07:15:39.704Z,7.93
2023-04-28T07:18:07.352Z,8.93
2023-04-28T07:20:34.380Z,8.27
2023-04-28T07:23:01.283Z,8.03
2023-04-28T07:25:28.193Z,7.13
2023-04-28T07:27:55.522Z,11.10
2023-04-28T07:30:27.738Z,7.80
2023-04-28T07:32:55.571Z,8.13
2023-04-28T07:35:22.776Z,8.10
2023-04-28T07:37:50.036Z,7.90
2023-04-28T07:40:17.441Z,7.60
2023-04-28T07:42:45.151Z,7.80
2023-04-28T07:45:12.159Z,8.43
2023-04-28T07:47:39.249Z,8.63
2023-04-28T07:50:07.292Z,7.87
2023-04-28T07:52:34.736Z,7.90
2023-04-28T07:55:02.880Z,7.80
2023-04-28T07:57:30.676Z,7.60
2023-04-28T07:59:57.610Z,7.47
2023-04-28T08:02:26.100Z,7.77
2023-04-28T08:04:53.513Z,7.33
2023-04-28T08:07:20.984Z,7.13
2023-04-28T08:09:51.116Z,7.97
2023-04-28T08:12:19.540Z,8.17
2023-04-28T08:14:48.364Z,8.07
2023-04-28T08:17:15.318Z,8.40
2023-04-28T08:19:42.245Z,8.00
2023-04-28T08:22:09.215Z,7.53
2023-04-28T08:24:36.209Z,8.07
2023-04-28T08:27:03.494Z,8.10
2023-04-28T08:29:31.812Z,8.87
2023-04-28T08:31:59.026Z,8.17
2023-04-28T08:34:25.964Z,7.93
2023-04-28T08:36:54.104Z,8.47
2023-04-28T08:39:23.306Z,8.27
2023-04-28T08:41:50.620Z,9.07
2023-04-28T08:44:18.473Z,8.43
2023-04-28T08:46:47.446Z,8.37
2023-04-28T08:49:16.774Z,7.30
2023-04-28T08:51:52.170Z,7.60
2023-04-28T08:54:26.684Z,8.00
2023-04-28T08:56:56.902Z,7.53
2023-04-28T09:42:40.661Z,7.32
2023-04-28T09:45:11.940Z,6.70
2023-04-28T09:47:44.259Z,8.40
2023-04-28T09:50:14.888Z,8.97
2023-04-28T09:52:44.181Z,7.53
2023-04-28T09:55:12.224Z,8.00
2023-04-28T09:57:39.885Z,9.30
2023-04-28T10:00:09.141Z,8.40
2023-04-28T10:05:09.645Z,7.77
2023-04-28T10:07:37.567Z,7.73
2023-04-28T10:10:05.416Z,7.80
2023-04-28T10:12:32.905Z,8.50
2023-04-28T10:15:00.195Z,8.13
2023-04-28T10:17:29.343Z,6.70
2023-04-28T10:19:57.420Z,6.90
2023-04-28T10:22:32.314Z,6.77
2023-04-28T10:25:22.136Z,6.50
2023-04-28T10:27:50.152Z,9.93
2023-04-28T10:30:28.191Z,7.03
2023-04-28T10:33:13.883Z,6.40
2023-04-28T10:35:47.696Z,7.20
2023-04-28T10:38:18.973Z,6.80
2023-04-28T10:40:50.714Z,7.30
2023-04-28T10:43:30.745Z,7.20
2023-04-28T10:46:00.735Z,7.60
2023-04-28T10:48:33.917Z,7.60
2023-04-28T10:51:03.890Z,7.10
2023-04-28T10:53:43.290Z,7.30
2023-04-28T10:56:21.403Z,8.60
2023-04-28T10:58:50.641Z,7.30
2023-04-28T11:01:26.668Z,7.20
2023-04-28T11:04:03.131Z,7.30
2023-04-28T11:06:33.119Z,7.53
2023-04-28T11:09:04.315Z,8.57
2023-04-28T11:11:34.769Z,7.97
2023-04-28T11:14:16.692Z,10.97
2023-04-28T11:16:52.006Z,8.00
2023-04-28T11:19:27.411Z,8.03
2023-04-28T11:21:56.642Z,8.07
2023-04-28T11:24:28.809Z,7.53
2023-04-28T11:26:59.657Z,7.53
2023-04-28T11:29:38.737Z,9.33
2023-04-28T11:32:08.044Z,8.00
2023-04-28T11:34:36.545Z,8.00
2023-04-28T11:37:03.951Z,8.13
2023-04-28T11:39:32.499Z,8.00
2023-04-28T11:42:02.181Z,9.07
2023-04-28T11:44:31.111Z,8.50
2023-04-28T11:47:01.099Z,8.43
2023-04-28T11:49:33.528Z,8.60
2023-04-28T11:52:07.960Z,9.70
2023-04-28T11:54:38.457Z,10.87
2023-04-28T11:57:06.018Z,10.50
2023-04-28T11:59:34.768Z,10.90
2023-04-28T12:02:03.364Z,9.30
2023-04-28T12:04:39.077Z,12.53
2023-04-28T12:07:16.645Z,9.70
2023-04-28T12:09:46.100Z,10.17
2023-04-28T12:12:17.158Z,9.63
2023-04-28T12:14:56.186Z,9.77
2023-04-28T12:17:33.322Z,11.87
2023-04-28T12:20:06.390Z,9.57
2023-04-28T12:22:48.108Z,10.30
2023-04-28T12:25:17.474Z,9.83
2023-04-28T12:28:04.771Z,9.90
2023-04-28T12:30:41.841Z,11.07
2023-04-28T12:33:28.835Z,9.37
2023-04-28T12:35:57.352Z,9.37
2023-04-28T12:38:24.845Z,14.53
2023-04-28T12:40:52.867Z,9.60
2023-04-28T12:43:21.186Z,9.47
2023-04-28T12:45:48.152Z,10.40
2023-04-28T12:48:15.427Z,9.53
2023-04-28T12:50:42.500Z,8.83
2023-04-28T12:53:09.433Z,19.40
2023-04-28T12:55:38.879Z,8.90
2023-04-28T12:58:05.982Z,8.83
2023-04-28T13:00:32.921Z,16.37
2023-04-28T13:03:00.015Z,15.30
2023-04-28T13:05:27.064Z,13.00
2023-04-28T13:07:54.064Z,8.33
2023-04-28T13:10:23.362Z,13.70
2023-04-28T13:12:50.606Z,8.70
2023-04-28T13:15:17.568Z,9.13
2023-04-28T13:17:46.327Z,9.13
2023-04-28T13:20:13.364Z,8.50
2023-04-28T13:22:40.449Z,8.00
2023-04-28T13:25:07.870Z,8.77
2023-04-28T13:27:37.471Z,8.73
2023-04-28T13:30:05.517Z,8.83
2023-04-28T13:32:32.550Z,11.07
2023-04-28T13:34:59.615Z,12.27
2023-04-28T13:37:26.571Z,13.60
2023-04-28T13:39:53.499Z,9.07
2023-04-28T13:42:20.591Z,8.70
2023-04-28T13:44:49.115Z,8.33
2023-04-28T13:47:16.356Z,8.97
2023-04-28T13:49:43.446Z,8.60
2023-04-28T13:52:10.858Z,9.87
2023-04-28T13:54:37.938Z,9.43
2023-04-28T13:57:05.165Z,10.30
2023-04-28T13:59:32.191Z,10.10
2023-04-28T14:01:59.067Z,11.60
2023-04-28T14:04:26.405Z,11.80
2023-04-28T14:06:53.536Z,10.20
2023-04-28T14:09:20.656Z,9.30
2023-04-28T14:11:47.686Z,9.07
2023-04-28T14:14:14.729Z,9.03
2023-04-28T14:16:41.974Z,9.07
2023-04-28T14:19:09.062Z,8.90
2023-04-28T14:21:36.834Z,9.33
2023-04-28T14:24:03.945Z,9.30
2023-04-28T14:26:31.114Z,9.87
2023-04-28T14:28:58.099Z,9.73
2023-04-28T14:31:25.206Z,9.17
2023-04-28T14:33:52.160Z,9.43
2023-04-28T14:36:19.088Z,10.17
2023-04-28T14:38:46.144Z,9.40
2023-04-28T14:41:13.040Z,10.97
2023-04-28T14:43:40.051Z,9.80
2023-04-28T14:46:07.912Z,9.13
2023-04-28T14:48:34.895Z,8.93
2023-04-28T14:51:02.372Z,36.77
2023-04-28T14:53:30.327Z,9.77
2023-04-28T14:56:07.517Z,9.57
2023-04-28T14:58:44.563Z,8.47
2023-04-28T15:01:11.727Z,9.03
2023-04-28T15:03:39.249Z,8.60
2023-04-28T15:06:06.450Z,8.43
2023-04-28T15:08:33.449Z,8.40
2023-04-28T15:11:00.415Z,8.77
2023-04-28T15:13:28.467Z,9.23
2023-04-28T15:15:55.993Z,10.27
2023-04-28T15:18:22.972Z,10.20
2023-04-28T15:20:51.860Z,9.53
2023-04-28T15:23:19.750Z,10.17
2023-04-28T15:25:47.151Z,10.93
2023-04-28T15:28:14.098Z,10.10
2023-04-28T15:30:41.291Z,9.60
2023-04-28T15:33:08.306Z,9.40
2023-04-28T15:35:35.917Z,10.60
2023-04-28T15:38:03.111Z,9.63
2023-04-28T15:40:30.246Z,11.70
2023-04-28T15:42:57.242Z,9.93
2023-04-28T15:45:24.175Z,10.83
2023-04-28T15:47:51.745Z,10.33
2023-04-28T15:50:20.302Z,10.73
2023-04-28T15:52:49.726Z,11.90
2023-04-28T15:55:18.633Z,10.70
2023-04-28T15:57:46.569Z,13.57
2023-04-28T16:00:15.377Z,11.43
2023-04-28T16:02:43.780Z,11.80
2023-04-28T16:05:11.401Z,11.70
2023-04-28T16:07:40.715Z,11.70
2023-04-28T16:10:12.253Z,11.97
2023-04-28T16:12:40.749Z,12.93
2023-04-28T16:15:09.785Z,12.07
2023-04-28T16:17:40.267Z,12.90
2023-04-28T16:20:08.486Z,13.67
2023-04-28T16:22:36.714Z,11.53
2023-04-28T16:25:04.011Z,12.00
2023-04-28T16:27:31.400Z,11.67
2023-04-28T16:29:58.749Z,11.50
2023-04-28T16:32:25.722Z,10.70
2023-04-28T16:34:52.928Z,9.47
2023-04-28T16:37:20.003Z,10.30
2023-04-28T16:39:47.270Z,11.03
2023-04-28T16:42:14.234Z,11.30
2023-04-28T16:44:42.423Z,10.80
2023-04-28T16:47:09.409Z,10.97
2023-04-28T16:49:36.414Z,9.57
2023-04-28T16:52:04.556Z,10.10
2023-04-28T16:54:32.854Z,10.67
2023-04-28T16:57:02.685Z,10.47
2023-04-28T16:59:29.786Z,11.33
2023-04-28T17:02:01.868Z,11.13
2023-04-28T17:04:29.014Z,11.87
2023-04-28T17:06:56.574Z,12.23
2023-04-28T17:09:23.510Z,14.77
2023-04-28T17:11:50.459Z,18.87
2023-04-28T17:14:17.752Z,30.37
2023-04-28T17:16:45.059Z,11.93
2023-04-28T17:19:12.620Z,12.13
2023-04-28T17:21:39.653Z,12.57
2023-04-28T17:24:07.083Z,12.40
2023-04-28T17:26:34.101Z,11.83
2023-04-28T17:29:02.328Z,11.50
2023-04-28T17:31:29.605Z,12.03
2023-04-28T17:33:58.646Z,12.03
2023-04-28T17:36:29.084Z,11.63
2023-04-28T17:38:56.107Z,11.27
2023-04-28T17:41:23.409Z,11.67
2023-04-28T17:43:53.826Z,11.73
2023-04-28T17:46:21.200Z,11.80
2023-04-28T17:48:48.134Z,11.77
2023-04-28T17:51:15.337Z,11.20
2023-04-28T17:53:42.574Z,12.63
2023-04-28T17:56:09.539Z,12.10
2023-04-28T17:58:37.225Z,12.43
2023-04-28T18:01:05.934Z,11.87
2023-04-28T18:03:37.973Z,13.67
2023-04-28T18:06:07.628Z,12.53
2023-04-28T18:08:36.527Z,11.60
2023-04-28T18:11:03.850Z,12.47
2023-04-28T18:13:30.892Z,12.00
2023-04-28T18:15:57.945Z,12.63
2023-04-28T18:18:25.511Z,13.37
2023-04-28T18:20:58.148Z,11.30
2023-04-28T18:23:26.464Z,12.13
2023-04-28T18:25:53.556Z,11.57
2023-04-28T18:28:20.645Z,11.97
2023-04-28T18:30:47.719Z,10.97
2023-04-28T18:33:14.746Z,14.03
2023-04-28T18:35:41.922Z,11.20
2023-04-28T18:38:08.889Z,10.17
2023-04-28T18:40:39.642Z,11.87
2023-04-28T18:43:08.501Z,12.40
2023-04-28T18:45:44.589Z,10.10
2023-04-28T18:48:12.097Z,11.00
2023-04-28T18:50:39.356Z,10.83
2023-04-28T18:53:08.347Z,11.80
2023-04-28T18:55:35.277Z,11.57
2023-04-28T18:58:03.926Z,10.87
2023-04-28T19:00:32.263Z,8.70
2023-04-28T19:02:59.338Z,10.57
2023-04-28T19:05:26.375Z,11.57
2023-04-28T19:07:53.299Z,11.10
2023-04-28T19:10:22.764Z,11.80
2023-04-28T19:12:49.672Z,10.70
2023-04-28T19:15:17.084Z,12.73
2023-04-28T19:17:44.413Z,11.00
2023-04-28T19:20:13.274Z,12.70
2023-04-28T19:22:44.155Z,12.17
2023-04-28T19:25:11.534Z,12.70
2023-04-28T19:27:40.510Z,12.43
2023-04-28T19:30:09.680Z,13.17
2023-04-28T19:32:37.086Z,13.97
2023-04-28T19:35:04.343Z,9.50
2023-04-28T19:37:32.110Z,10.97
2023-04-28T19:39:59.131Z,11.67
2023-04-28T19:42:26.425Z,9.83
2023-04-28T19:44:57.414Z,9.80
2023-04-28T19:47:29.648Z,10.60
2023-04-28T19:49:56.703Z,9.00
2023-04-28T19:52:23.992Z,10.77
2023-04-28T19:54:52.062Z,10.07
2023-04-28T19:57:19.752Z,9.03
2023-04-28T19:59:47.943Z,10.00
2023-04-28T20:02:16.075Z,12.03
2023-04-28T20:04:43.532Z,11.07
2023-04-28T20:07:11.432Z,9.70
2023-04-28T20:09:38.874Z,10.87
2023-04-28T20:12:08.867Z,10.23
2023-04-28T20:14:37.135Z,11.50
2023-04-28T20:17:05.466Z,11.40
2023-04-28T20:19:32.538Z,14.60
2023-04-28T20:22:03.035Z,12.00
2023-04-28T20:24:30.116Z,13.70
2023-04-28T20:26:58.589Z,16.07
2023-04-28T20:29:27.002Z,15.83
2023-04-28T20:31:53.929Z,13.60
2023-04-28T20:34:22.076Z,17.30
2023-04-28T20:36:49.257Z,15.37
2023-04-28T20:39:16.211Z,17.30
2023-04-28T20:41:43.246Z,16.70
2023-04-28T20:44:10.295Z,20.30
2023-04-28T20:46:37.680Z,20.50
2023-04-28T20:49:05.604Z,18.87
2023-04-28T20:51:37.209Z,18.87
2023-04-28T20:54:04.371Z,15.57
2023-04-28T20:56:31.243Z,20.10
2023-04-28T20:58:58.136Z,18.53
2023-04-28T21:01:25.479Z,15.57
2023-04-28T21:03:52.667Z,17.53
2023-04-28T21:06:19.817Z,18.93
2023-04-28T21:08:46.792Z,15.50
2023-04-28T21:11:15.193Z,14.03
2023-04-28T21:13:42.956Z,10.33
2023-04-28T21:16:16.462Z,15.77
2023-04-28T21:18:46.862Z,16.33
2023-04-28T21:21:14.096Z,16.63
2023-04-28T21:23:41.197Z,14.40
2023-04-28T21:26:09.003Z,10.47
2023-04-28T21:28:36.813Z,11.03
2023-04-28T21:31:07.262Z,13.57
2023-04-28T21:33:34.233Z,13.33
2023-04-28T21:36:06.650Z,14.47
2023-04-28T21:38:34.589Z,14.63
2023-04-28T21:41:01.613Z,16.80
2023-04-28T21:43:28.833Z,17.87
2023-04-28T21:45:56.124Z,17.47
2023-04-28T21:48:23.017Z,14.17
2023-04-28T21:50:50.208Z,13.43
2023-04-28T21:53:17.153Z,17.90
2023-04-28T21:55:44.675Z,12.30
2023-04-28T21:58:12.123Z,13.87
2023-04-28T22:00:44.016Z,14.97
2023-04-28T22:03:13.575Z,12.57
2023-04-28T22:05:41.516Z,17.27
2023-04-28T22:08:08.481Z,15.13
2023-04-28T22:10:35.448Z,14.63
2023-04-28T22:13:03.072Z,18.00
2023-04-28T22:15:30.072Z,14.87
2023-04-28T22:17:58.071Z,15.07
2023-04-28T22:20:25.186Z,16.77
2023-04-28T22:22:52.487Z,17.70
2023-04-28T22:25:19.619Z,15.17
2023-04-28T22:27:46.690Z,16.13
2023-04-28T22:30:13.909Z,14.83
2023-04-28T22:32:44.516Z,13.77
2023-04-28T22:35:16.522Z,14.33
2023-04-28T22:37:44.165Z,13.30
2023-04-28T22:40:11.321Z,16.00
2023-04-28T22:42:39.649Z,12.80
2023-04-28T22:45:07.563Z,13.73
2023-04-28T22:47:35.065Z,14.43
2023-04-28T22:50:06.195Z,13.60
2023-04-28T22:52:34.657Z,14.83
2023-04-28T22:55:01.594Z,16.90
2023-04-28T22:57:28.737Z,17.93
2023-04-28T22:59:55.874Z,16.57
2023-04-28T23:02:23.210Z,16.77
2023-04-28T23:04:51.280Z,13.70
2023-04-28T23:07:18.298Z,16.03
2023-04-28T23:09:45.308Z,13.93
2023-04-28T23:12:12.274Z,13.60
2023-04-28T23:14:39.485Z,16.00
2023-04-28T23:17:06.447Z,13.87
2023-04-28T23:19:35.512Z,16.13
2023-04-28T23:22:02.446Z,15.53
2023-04-28T23:24:29.413Z,13.30
2023-04-28T23:26:56.572Z,13.37
2023-04-28T23:29:23.840Z,14.50
2023-04-28T23:31:55.024Z,12.47
2023-04-28T23:34:22.920Z,12.63
2023-04-28T23:36:50.667Z,12.97
2023-04-28T23:39:18.086Z,13.10
2023-04-28T23:41:45.031Z,13.03
2023-04-28T23:44:11.970Z,12.70
2023-04-28T23:46:38.897Z,13.47
2023-04-28T23:49:05.832Z,11.27
2023-04-28T23:51:32.867Z,11.83
2023-04-28T23:53:59.912Z,12.83
2023-04-28T23:56:27.149Z,12.93
2023-04-28T23:58:54.147Z,11.97
